createdAt,value
2023-04-06T00:00:00.275Z,47.12
2023-04-06T00:02:02.935Z,47.16
2023-04-06T00:04:05.930Z,47.18
2023-04-06T00:06:08.682Z,47.64
2023-04-06T00:08:11.631Z,47.92
2023-04-06T00:10:15.702Z,48.08
2023-04-06T00:12:18.266Z,48.22
2023-04-06T00:14:21.082Z,48.39
2023-04-06T00:16:25.066Z,48.34
2023-04-06T00:18:28.086Z,48.12
2023-04-06T00:20:30.646Z,48.12
2023-04-06T00:22:33.191Z,48.50
2023-04-06T00:24:36.010Z,48.12
2023-04-06T00:26:39.913Z,48.56
2023-04-06T00:28:42.473Z,48.65
2023-04-06T00:30:45.034Z,48.50
2023-04-06T00:32:47.635Z,48.51
2023-04-06T00:34:50.211Z,48.51
2023-04-06T00:36:52.758Z,48.61
2023-04-06T00:38:55.989Z,48.61
2023-04-06T00:40:58.557Z,48.47
2023-04-06T00:43:02.540Z,48.68
2023-04-06T00:45:05.613Z,49.04
2023-04-06T00:47:08.453Z,48.85
2023-04-06T00:49:11.137Z,49.30
2023-04-06T00:51:13.708Z,49.30
2023-04-06T00:53:16.259Z,49.41
2023-04-06T00:55:18.918Z,49.33
2023-04-06T00:57:21.560Z,49.71
2023-04-06T00:59:26.039Z,49.71
2023-04-06T01:01:29.701Z,50.06
2023-04-06T01:03:32.446Z,49.81
2023-04-06T01:05:35.540Z,50.35
2023-04-06T01:07:38.087Z,50.34
2023-04-06T01:09:43.023Z,50.66
2023-04-06T01:11:45.629Z,50.81
2023-04-06T01:13:48.528Z,50.58
2023-04-06T01:15:53.023Z,50.90
2023-04-06T01:17:55.680Z,50.97
2023-04-06T01:19:58.310Z,50.97
2023-04-06T01:22:00.955Z,50.84
2023-04-06T01:24:05.341Z,50.46
2023-04-06T01:26:07.928Z,50.70
2023-04-06T01:28:10.468Z,51.29
2023-04-06T01:30:13.490Z,51.18
2023-04-06T01:32:16.094Z,51.60
2023-04-06T01:34:18.658Z,51.45
2023-04-06T01:36:21.506Z,51.72
2023-04-06T01:38:24.058Z,51.56
2023-04-06T01:40:27.928Z,51.88
2023-04-06T01:42:31.291Z,51.59
2023-04-06T01:44:33.878Z,51.96
2023-04-06T01:46:36.471Z,51.79
2023-04-06T01:48:39.090Z,51.71
2023-04-06T01:50:41.715Z,51.50
2023-04-06T01:52:44.332Z,51.50
2023-04-06T01:54:46.925Z,51.79
2023-04-06T01:56:51.579Z,51.65
2023-04-06T01:58:54.448Z,51.72
2023-04-06T02:00:57.048Z,52.13
2023-04-06T02:02:59.685Z,51.75
2023-04-06T02:05:02.289Z,51.71
2023-04-06T02:07:04.892Z,51.90
2023-04-06T02:09:07.816Z,52.27
2023-04-06T02:11:10.632Z,51.68
2023-04-06T02:13:14.510Z,51.92
2023-04-06T02:15:17.593Z,51.78
2023-04-06T02:17:20.171Z,51.62
2023-04-06T02:19:23.378Z,51.67
2023-04-06T02:21:25.942Z,51.82
2023-04-06T02:23:28.566Z,51.58
2023-04-06T02:25:31.144Z,51.95
2023-04-06T02:27:33.814Z,52.07
2023-04-06T02:29:37.768Z,52.27
2023-04-06T02:31:40.542Z,51.82
2023-04-06T02:33:43.125Z,52.13
2023-04-06T02:35:46.417Z,52.22
2023-04-06T02:37:49.023Z,52.46
2023-04-06T02:39:51.650Z,52.08
2023-04-06T02:41:54.229Z,52.04
2023-04-06T02:43:56.746Z,52.03
2023-04-06T02:46:00.719Z,52.56
2023-04-06T02:48:03.546Z,52.79
2023-04-06T02:50:06.990Z,52.20
2023-04-06T02:52:09.553Z,52.85
2023-04-06T02:54:12.097Z,52.79
2023-04-06T02:56:14.665Z,52.26
2023-04-06T02:58:17.238Z,52.66
2023-04-06T03:00:20.645Z,52.80
2023-04-06T03:02:24.992Z,52.95
2023-04-06T03:04:27.620Z,52.47
2023-04-06T03:06:30.184Z,52.46
2023-04-06T03:08:32.727Z,52.90
2023-04-06T03:10:35.295Z,52.69
2023-04-06T03:12:40.381Z,52.58
2023-04-06T03:14:42.978Z,52.63
2023-04-06T03:16:45.757Z,53.09
2023-04-06T03:18:49.629Z,53.24
2023-04-06T03:20:54.728Z,53.20
2023-04-06T03:22:57.315Z,53.75
2023-04-06T03:25:02.274Z,54.12
2023-04-06T03:27:07.199Z,54.45
2023-04-06T03:29:10.001Z,54.17
2023-04-06T03:31:12.745Z,54.40
2023-04-06T03:33:15.267Z,54.83
2023-04-06T03:35:19.290Z,54.99
2023-04-06T03:37:21.880Z,54.75
2023-04-06T03:39:24.400Z,54.53
2023-04-06T03:41:27.307Z,54.44
2023-04-06T03:43:29.989Z,55.19
2023-04-06T03:45:32.560Z,54.89
2023-04-06T03:47:35.106Z,54.64
2023-04-06T03:49:39.860Z,54.78
2023-04-06T03:51:44.504Z,55.14
2023-04-06T03:53:47.058Z,54.81
2023-04-06T03:55:49.626Z,54.47
2023-04-06T03:57:52.303Z,54.47
2023-04-06T03:59:54.861Z,55.08
2023-04-06T04:01:57.473Z,54.88
2023-04-06T04:04:00.526Z,55.28
2023-04-06T04:06:03.315Z,55.19
2023-04-06T04:08:07.403Z,55.25
2023-04-06T04:10:11.208Z,55.24
2023-04-06T04:12:15.580Z,55.38
2023-04-06T04:14:18.126Z,54.65
2023-04-06T04:16:20.749Z,54.67
2023-04-06T04:18:23.341Z,55.09
2023-04-06T04:20:26.152Z,54.29
2023-04-06T04:22:29.660Z,54.90
2023-04-06T04:24:33.540Z,54.58
2023-04-06T04:26:36.354Z,54.79
2023-04-06T04:28:38.932Z,54.64
2023-04-06T04:30:41.554Z,54.36
2023-04-06T04:32:44.124Z,54.65
2023-04-06T04:34:46.708Z,54.35
2023-04-06T04:36:49.280Z,54.51
2023-04-06T04:38:51.838Z,54.56
2023-04-06T04:40:55.915Z,54.31
2023-04-06T04:42:58.475Z,55.12
2023-04-06T04:45:01.059Z,55.15
2023-04-06T04:47:03.683Z,55.25
2023-04-06T04:49:06.408Z,55.00
2023-04-06T04:51:09.188Z,55.58
2023-04-06T04:53:11.802Z,55.66
2023-04-06T04:55:14.386Z,55.11
2023-04-06T04:57:18.361Z,55.23
2023-04-06T04:59:20.920Z,55.30
2023-04-06T05:01:23.678Z,54.99
2023-04-06T05:03:28.290Z,55.33
2023-04-06T05:05:30.980Z,55.36
2023-04-06T05:07:33.578Z,55.89
2023-04-06T05:09:36.242Z,55.59
2023-04-06T05:11:38.820Z,55.67
2023-04-06T05:13:42.854Z,55.87
2023-04-06T05:15:45.496Z,56.14
2023-04-06T05:17:50.224Z,55.37
2023-04-06T05:19:52.819Z,55.71
2023-04-06T05:21:55.409Z,55.76
2023-04-06T05:23:58.024Z,55.26
2023-04-06T05:26:01.110Z,55.24
2023-04-06T05:28:03.699Z,55.20
2023-04-06T05:30:09.191Z,55.88
2023-04-06T05:32:12.079Z,55.25
2023-04-06T05:34:14.832Z,55.58
2023-04-06T05:36:17.392Z,56.10
2023-04-06T05:38:19.919Z,55.76
2023-04-06T05:40:24.619Z,55.77
2023-04-06T05:42:28.020Z,55.14
2023-04-06T05:44:30.612Z,55.74
2023-04-06T05:46:34.554Z,55.27
2023-04-06T05:48:37.112Z,55.33
2023-04-06T05:50:39.670Z,56.12
2023-04-06T05:52:44.028Z,55.93
2023-04-06T05:54:46.737Z,56.01
2023-04-06T05:56:49.277Z,55.49
2023-04-06T05:58:51.847Z,56.15
2023-04-06T06:00:58.795Z,56.07
2023-04-06T06:03:05.121Z,55.45
2023-04-06T06:05:08.256Z,55.52
2023-04-06T06:07:10.981Z,55.28
2023-04-06T06:09:13.545Z,55.72
2023-04-06T06:11:16.090Z,55.23
2023-04-06T06:13:18.632Z,55.65
2023-04-06T06:15:21.626Z,55.99
2023-04-06T06:17:24.291Z,55.41
2023-04-06T06:19:28.211Z,55.32
2023-04-06T06:21:31.670Z,55.13
2023-04-06T06:23:34.232Z,54.80
2023-04-06T06:25:36.779Z,54.79
2023-04-06T06:27:39.307Z,54.25
2023-04-06T06:29:41.851Z,54.11
2023-04-06T06:31:44.438Z,53.86
2023-04-06T06:33:47.016Z,53.54
2023-04-06T06:35:51.105Z,53.69
2023-04-06T06:37:53.735Z,53.59
2023-04-06T06:39:56.293Z,53.49
2023-04-06T06:42:01.475Z,53.01
2023-04-06T06:44:04.221Z,52.58
2023-04-06T06:46:07.545Z,52.63
2023-04-06T06:48:10.153Z,52.17
2023-04-06T06:50:12.812Z,52.77
2023-04-06T06:52:16.866Z,51.89
2023-04-06T06:54:19.394Z,51.72
2023-04-06T06:56:21.982Z,52.08
2023-04-06T06:58:24.673Z,51.85
2023-04-06T07:00:27.287Z,51.44
2023-04-06T07:02:29.898Z,51.77
2023-04-06T07:04:32.493Z,51.45
2023-04-06T07:06:35.532Z,51.72
2023-04-06T07:08:39.437Z,51.80
2023-04-06T07:10:42.024Z,52.46
2023-04-06T07:12:44.695Z,52.35
2023-04-06T07:14:47.257Z,52.14
2023-04-06T07:16:51.015Z,52.50
2023-04-06T07:18:53.687Z,52.87
2023-04-06T07:20:56.273Z,52.73
2023-04-06T07:22:58.794Z,52.83
2023-04-06T07:25:02.762Z,52.32
2023-04-06T07:27:05.924Z,51.75
2023-04-06T07:29:08.492Z,52.19
2023-04-06T07:31:11.323Z,51.89
2023-04-06T07:33:13.867Z,51.78
2023-04-06T07:35:16.962Z,51.89
2023-04-06T07:37:19.796Z,51.64
2023-04-06T07:39:22.376Z,49.27
2023-04-06T07:41:26.520Z,49.35
2023-04-06T07:43:29.085Z,49.89
2023-04-06T07:45:31.974Z,51.03
2023-04-06T07:47:34.541Z,51.21
2023-04-06T07:49:37.124Z,51.04
2023-04-06T07:51:40.223Z,50.80
2023-04-06T07:53:42.883Z,51.12
2023-04-06T07:55:45.467Z,51.20
2023-04-06T07:57:49.388Z,51.06
2023-04-06T07:59:51.973Z,50.83
2023-04-06T08:01:54.695Z,50.46
2023-04-06T08:03:57.641Z,50.50
2023-04-06T08:06:03.333Z,50.73
2023-04-06T08:08:06.240Z,50.86
2023-04-06T08:10:09.448Z,50.43
2023-04-06T08:12:11.977Z,50.77
2023-04-06T08:14:18.036Z,50.67
2023-04-06T08:16:21.098Z,51.23
2023-04-06T08:18:23.744Z,50.97
2023-04-06T08:20:26.311Z,51.38
2023-04-06T08:22:28.845Z,51.21
2023-04-06T08:24:33.240Z,50.33
2023-04-06T08:26:36.002Z,50.34
2023-04-06T08:28:39.009Z,50.21
2023-04-06T08:30:44.069Z,50.48
2023-04-06T08:32:46.691Z,50.52
2023-04-06T08:34:49.264Z,50.28
2023-04-06T08:36:52.119Z,50.22
2023-04-06T08:38:54.877Z,49.72
2023-04-06T08:40:57.456Z,48.53
2023-04-06T08:43:05.012Z,48.18
2023-04-06T08:45:09.985Z,48.18
2023-04-06T08:47:13.874Z,48.10
2023-04-06T08:49:18.260Z,48.98
2023-04-06T08:51:21.133Z,48.88
2023-04-06T08:53:24.365Z,48.70
2023-04-06T08:55:27.103Z,48.42
2023-04-06T08:57:30.411Z,48.06
2023-04-06T08:59:33.572Z,47.87
2023-04-06T09:01:42.121Z,47.37
2023-04-06T09:03:47.820Z,45.42
2023-04-06T09:05:51.131Z,45.45
2023-04-06T09:07:53.973Z,45.35
2023-04-06T09:09:56.578Z,45.60
2023-04-06T09:12:04.415Z,46.24
2023-04-06T09:14:07.262Z,46.48
2023-04-06T09:16:10.054Z,45.81
2023-04-06T09:18:12.613Z,45.96
2023-04-06T09:20:17.991Z,46.11
2023-04-06T09:22:21.141Z,46.54
2023-04-06T09:24:27.122Z,46.53
2023-04-06T09:26:29.919Z,46.30
2023-04-06T09:28:43.345Z,45.86
2023-04-06T09:30:50.225Z,45.83
2023-04-06T09:32:55.689Z,45.80
2023-04-06T09:35:07.800Z,45.88
2023-04-06T09:37:18.931Z,45.98
2023-04-06T09:39:24.233Z,45.90
2023-04-06T09:41:27.705Z,45.64
2023-04-06T09:43:31.070Z,45.16
2023-04-06T09:45:34.206Z,43.74
2023-04-06T09:47:38.757Z,43.90
2023-04-06T09:49:41.497Z,44.40
2023-04-06T09:51:48.164Z,44.47
2023-04-06T09:53:55.576Z,43.85
2023-04-06T09:56:04.296Z,43.63
2023-04-06T09:58:08.407Z,43.27
2023-04-06T10:00:14.314Z,43.21
2023-04-06T10:02:23.038Z,42.66
2023-04-06T10:04:38.755Z,42.96
2023-04-06T10:06:41.735Z,41.71
2023-04-06T10:08:47.609Z,40.56
2023-04-06T10:10:53.108Z,41.37
2023-04-06T10:12:56.615Z,41.32
2023-04-06T10:14:59.703Z,41.38
2023-04-06T10:17:03.976Z,41.25
2023-04-06T10:19:12.044Z,41.58
2023-04-06T10:21:21.910Z,41.45
2023-04-06T10:23:38.221Z,40.73
2023-04-06T10:25:40.769Z,40.39
2023-04-06T10:27:44.689Z,39.74
2023-04-06T10:29:49.671Z,38.72
2023-04-06T10:31:52.281Z,39.41
2023-04-06T10:33:58.553Z,39.34
2023-04-06T10:36:12.051Z,38.93
2023-04-06T10:38:15.423Z,39.11
2023-04-06T10:40:28.709Z,39.11
2023-04-06T10:42:39.221Z,38.95
2023-04-06T10:44:46.513Z,38.47
2023-04-06T10:46:55.196Z,38.07
2023-04-06T10:48:58.669Z,37.60
2023-04-06T10:51:01.230Z,37.16
2023-04-06T10:53:07.184Z,37.32
2023-04-06T10:55:11.813Z,37.46
2023-04-06T10:57:14.857Z,38.11
2023-04-06T10:59:21.981Z,36.70
2023-04-06T11:01:27.548Z,36.57
2023-04-06T11:03:30.261Z,36.63
2023-04-06T11:05:33.089Z,36.67
2023-04-06T11:07:35.974Z,35.16
2023-04-06T11:09:38.538Z,35.62
2023-04-06T11:11:41.264Z,34.22
2023-04-06T11:13:45.835Z,35.20
2023-04-06T11:15:50.049Z,34.82
2023-04-06T11:17:54.116Z,34.82
2023-04-06T11:19:56.948Z,35.08
2023-04-06T11:22:09.035Z,35.22
2023-04-06T11:24:12.971Z,34.17
2023-04-06T11:26:16.039Z,33.82
2023-04-06T11:28:18.640Z,34.11
2023-04-06T11:30:21.453Z,34.72
2023-04-06T11:32:25.456Z,34.77
2023-04-06T11:34:31.096Z,33.60
2023-04-06T11:36:33.641Z,34.22
2023-04-06T11:38:36.311Z,34.70
2023-04-06T11:40:38.983Z,35.06
2023-04-06T11:42:41.567Z,35.10
2023-04-06T11:44:47.004Z,33.55
2023-04-06T11:46:58.664Z,33.62
2023-04-06T11:49:02.277Z,32.45
2023-04-06T11:51:07.814Z,31.49
2023-04-06T11:53:10.366Z,31.69
2023-04-06T11:55:15.229Z,32.46
2023-04-06T11:57:18.874Z,32.60
2023-04-06T11:59:22.312Z,33.33
2023-04-06T12:01:25.305Z,33.47
2023-04-06T12:03:28.035Z,33.54
2023-04-06T12:05:30.913Z,34.02
2023-04-06T12:07:35.654Z,34.03
2023-04-06T12:09:38.301Z,34.18
2023-04-06T12:11:41.766Z,32.51
2023-04-06T12:13:44.294Z,32.11
2023-04-06T12:15:46.838Z,32.28
2023-04-06T12:17:49.732Z,31.71
2023-04-06T12:19:52.563Z,31.70
2023-04-06T12:21:55.809Z,32.06
2023-04-06T12:23:59.770Z,31.90
2023-04-06T12:26:02.694Z,32.43
2023-04-06T12:28:05.459Z,32.54
2023-04-06T12:30:09.606Z,30.58
2023-04-06T12:32:12.692Z,30.90
2023-04-06T12:34:15.277Z,30.42
2023-04-06T12:36:20.049Z,30.83
2023-04-06T12:38:22.857Z,31.50
2023-04-06T12:40:26.870Z,31.58
2023-04-06T12:42:29.423Z,31.20
2023-04-06T12:44:32.026Z,31.14
2023-04-06T12:46:34.708Z,31.33
2023-04-06T12:48:37.468Z,30.63
2023-04-06T12:50:40.011Z,30.48
2023-04-06T12:52:42.539Z,30.39
2023-04-06T12:54:45.841Z,30.70
2023-04-06T12:56:49.778Z,30.38
2023-04-06T12:58:53.507Z,29.61
2023-04-06T13:00:56.961Z,29.67
2023-04-06T13:02:59.697Z,28.72
2023-04-06T13:05:02.283Z,28.74
2023-04-06T13:07:04.856Z,28.95
2023-04-06T13:09:08.713Z,28.67
2023-04-06T13:11:11.348Z,27.69
2023-04-06T13:13:15.993Z,27.82
2023-04-06T13:15:18.612Z,27.87
2023-04-06T13:17:22.027Z,26.65
2023-04-06T13:19:24.628Z,26.75
2023-04-06T13:21:27.276Z,27.04
2023-04-06T13:23:30.127Z,25.96
2023-04-06T13:25:33.637Z,26.00
2023-04-06T13:27:36.860Z,25.84
2023-04-06T13:29:40.944Z,26.50
2023-04-06T13:31:43.537Z,25.30
2023-04-06T13:33:46.255Z,25.61
2023-04-06T13:35:49.329Z,25.52
2023-04-06T13:37:53.164Z,25.85
2023-04-06T13:39:55.916Z,24.67
2023-04-06T13:41:58.459Z,22.78
2023-04-06T13:44:01.165Z,22.71
2023-04-06T13:46:05.438Z,23.15
2023-04-06T13:48:08.431Z,23.27
2023-04-06T13:50:11.363Z,23.95
2023-04-06T13:52:13.925Z,23.91
2023-04-06T13:54:16.523Z,23.90
2023-04-06T13:56:19.040Z,23.37
2023-04-06T13:58:21.635Z,23.22
2023-04-06T14:00:24.791Z,23.88
2023-04-06T14:02:28.723Z,22.58
2023-04-06T14:04:31.661Z,22.99
2023-04-06T14:06:34.237Z,22.30
2023-04-06T14:08:36.847Z,22.24
2023-04-06T14:10:41.068Z,23.11
2023-04-06T14:12:45.152Z,22.74
2023-04-06T14:14:47.883Z,21.17
2023-04-06T14:16:50.696Z,21.24
2023-04-06T14:18:54.592Z,20.58
2023-04-06T14:20:58.256Z,21.33
2023-04-06T14:23:02.264Z,21.34
2023-04-06T14:25:05.041Z,21.85
2023-04-06T14:27:07.611Z,23.11
2023-04-06T14:29:10.495Z,23.98
2023-04-06T14:31:16.096Z,24.48
2023-04-06T14:33:18.747Z,24.92
2023-04-06T14:35:22.675Z,25.00
2023-04-06T14:37:25.300Z,25.55
2023-04-06T14:39:27.836Z,25.77
2023-04-06T14:41:30.612Z,25.73
2023-04-06T14:43:33.206Z,25.98
2023-04-06T14:45:37.643Z,26.19
2023-04-06T14:47:40.299Z,25.82
2023-04-06T14:49:42.905Z,26.38
2023-04-06T14:51:46.838Z,26.68
2023-04-06T14:53:49.358Z,26.39
2023-04-06T14:55:52.392Z,25.21
2023-04-06T14:57:55.046Z,24.72
2023-04-06T14:59:57.564Z,24.72
2023-04-06T15:02:04.065Z,25.11
2023-04-06T15:04:07.848Z,25.30
2023-04-06T15:06:16.391Z,25.70
2023-04-06T15:08:21.675Z,25.30
2023-04-06T15:10:24.270Z,24.84
2023-04-06T15:12:26.817Z,25.21
2023-04-06T15:14:29.395Z,25.75
2023-04-06T15:16:33.368Z,25.12
2023-04-06T15:18:36.431Z,24.97
2023-04-06T15:20:39.388Z,25.01
2023-04-06T15:22:41.971Z,24.31
2023-04-06T15:24:46.057Z,24.87
2023-04-06T15:26:48.605Z,25.56
2023-04-06T15:28:51.344Z,25.63
2023-04-06T15:30:54.022Z,25.32
2023-04-06T15:32:59.379Z,25.13
2023-04-06T15:35:02.039Z,25.76
2023-04-06T15:37:04.912Z,26.36
2023-04-06T15:39:09.746Z,27.43
2023-04-06T15:41:15.651Z,27.24
2023-04-06T15:43:19.314Z,27.79
2023-04-06T15:45:22.110Z,27.57
2023-04-06T15:47:24.804Z,27.74
2023-04-06T15:49:27.473Z,28.09
2023-04-06T15:51:30.281Z,27.41
2023-04-06T15:53:33.509Z,27.61
2023-04-06T15:55:36.072Z,27.83
2023-04-06T15:57:40.087Z,28.13
2023-04-06T15:59:42.697Z,28.36
2023-04-06T16:01:47.128Z,28.58
2023-04-06T16:03:49.926Z,27.30
2023-04-06T16:08:02.376Z,28.10
2023-04-06T16:10:08.356Z,28.54
2023-04-06T16:12:10.990Z,28.82
2023-04-06T16:14:14.987Z,28.94
2023-04-06T16:16:17.609Z,29.40
2023-04-06T16:18:20.534Z,29.94
2023-04-06T16:20:23.207Z,30.17
2023-04-06T16:22:25.882Z,30.06
2023-04-06T16:24:28.498Z,29.63
2023-04-06T16:26:31.775Z,28.81
2023-04-06T16:28:34.332Z,28.87
2023-04-06T16:30:40.450Z,28.71
2023-04-06T16:32:46.542Z,28.88
2023-04-06T16:34:49.286Z,29.27
2023-04-06T16:36:52.551Z,29.02
2023-04-06T16:38:55.824Z,29.10
2023-04-06T16:41:01.548Z,29.22
2023-04-06T16:43:05.039Z,29.53
2023-04-06T16:45:08.891Z,29.67
2023-04-06T16:47:13.141Z,29.00
2023-04-06T16:49:17.407Z,29.48
2023-04-06T16:51:19.952Z,30.01
2023-04-06T16:53:22.542Z,29.65
2023-04-06T16:55:25.333Z,29.02
2023-04-06T16:57:29.594Z,29.47
2023-04-06T16:59:32.569Z,29.96
2023-04-06T17:01:35.381Z,29.96
2023-04-06T17:03:39.399Z,29.76
2023-04-06T17:05:42.085Z,29.87
2023-04-06T17:07:45.010Z,30.20
2023-04-06T17:09:49.028Z,30.59
2023-04-06T17:11:51.620Z,29.30
2023-04-06T17:13:54.214Z,29.12
2023-04-06T17:15:56.755Z,29.34
2023-04-06T17:17:59.343Z,29.85
2023-04-06T17:20:03.627Z,29.95
2023-04-06T17:22:06.425Z,30.36
2023-04-06T17:24:09.622Z,30.44
2023-04-06T17:26:12.276Z,30.71
2023-04-06T17:28:14.946Z,31.93
2023-04-06T17:30:18.499Z,32.48
2023-04-06T17:32:21.889Z,33.56
2023-04-06T17:34:24.501Z,34.16
2023-04-06T17:36:28.819Z,34.54
2023-04-06T17:38:32.252Z,34.13
2023-04-06T17:40:35.944Z,32.48
2023-04-06T17:42:38.518Z,31.58
2023-04-06T17:44:41.228Z,31.50
2023-04-06T17:46:43.783Z,31.46
2023-04-06T17:48:47.058Z,31.56
2023-04-06T17:50:49.635Z,32.47
2023-04-06T17:52:53.595Z,32.97
2023-04-06T17:54:56.579Z,33.40
2023-04-06T17:56:59.149Z,33.84
2023-04-06T17:59:02.563Z,34.58
2023-04-06T18:01:08.203Z,35.51
2023-04-06T18:03:10.962Z,35.59
2023-04-06T18:05:13.822Z,36.31
2023-04-06T18:07:16.393Z,36.44
2023-04-06T18:09:20.308Z,36.77
2023-04-06T18:11:23.246Z,36.63
2023-04-06T18:13:28.593Z,36.76
2023-04-06T18:15:31.464Z,37.36
2023-04-06T18:17:34.249Z,37.35
2023-04-06T18:19:36.808Z,37.22
2023-04-06T18:21:39.361Z,37.62
2023-04-06T18:23:41.959Z,37.48
2023-04-06T18:25:45.959Z,36.70
2023-04-06T18:27:48.527Z,36.32
2023-04-06T18:29:51.223Z,35.54
2023-04-06T18:31:55.087Z,35.88
2023-04-06T18:33:58.449Z,35.26
2023-04-06T18:36:01.218Z,35.13
2023-04-06T18:38:03.762Z,34.88
2023-04-06T18:40:07.729Z,34.51
2023-04-06T18:42:11.695Z,33.99
2023-04-06T18:44:14.286Z,34.30
2023-04-06T18:46:19.748Z,33.93
2023-04-06T18:48:22.431Z,34.50
2023-04-06T18:50:25.005Z,34.47
2023-04-06T18:52:27.550Z,34.60
2023-04-06T18:54:30.057Z,34.22
2023-04-06T18:56:33.221Z,34.81
2023-04-06T18:58:37.106Z,35.07
2023-04-06T19:00:41.014Z,35.02
2023-04-06T19:02:43.853Z,35.64
2023-04-06T19:04:46.542Z,36.01
2023-04-06T19:06:49.207Z,36.21
2023-04-06T19:08:51.873Z,35.98
2023-04-06T19:10:54.444Z,36.03
2023-04-06T19:12:57.507Z,36.61
2023-04-06T19:15:01.397Z,36.59
2023-04-06T19:17:03.946Z,36.54
2023-04-06T19:19:06.538Z,36.90
2023-04-06T19:21:16.693Z,37.07
2023-04-06T19:23:19.328Z,36.89
2023-04-06T19:25:21.909Z,37.43
2023-04-06T19:27:24.482Z,36.98
2023-04-06T19:29:27.045Z,37.52
2023-04-06T19:31:31.027Z,37.26
2023-04-06T19:33:33.751Z,37.93
2023-04-06T19:35:36.295Z,37.96
2023-04-06T19:37:39.155Z,37.85
2023-04-06T19:39:44.055Z,37.46
2023-04-06T19:41:46.663Z,37.87
2023-04-06T19:43:49.254Z,37.51
2023-04-06T19:45:52.074Z,37.60
2023-04-06T19:47:56.127Z,36.86
2023-04-06T19:49:58.778Z,36.95
2023-04-06T19:52:01.343Z,37.48
2023-04-06T19:54:04.175Z,37.82
2023-04-06T19:56:06.731Z,37.83
2023-04-06T19:58:09.441Z,38.38
2023-04-06T20:00:13.036Z,38.49
2023-04-06T20:02:15.769Z,39.14
2023-04-06T20:04:19.951Z,39.50
2023-04-06T20:06:22.574Z,40.85
2023-04-06T20:08:25.301Z,41.32
2023-04-06T20:10:27.858Z,42.14
2023-04-06T20:12:30.397Z,42.28
2023-04-06T20:14:32.927Z,42.96
2023-04-06T20:16:35.994Z,42.93
2023-04-06T20:18:38.615Z,43.61
2023-04-06T20:20:42.531Z,43.84
2023-04-06T20:22:46.195Z,44.14
2023-04-06T20:24:48.756Z,44.70
2023-04-06T20:26:51.392Z,44.83
2023-04-06T20:28:54.138Z,44.84
2023-04-06T20:30:57.747Z,44.86
2023-04-06T20:33:00.525Z,45.14
2023-04-06T20:35:03.110Z,45.68
2023-04-06T20:37:09.219Z,46.29
2023-04-06T20:39:11.874Z,46.56
2023-04-06T20:41:14.627Z,46.37
2023-04-06T20:43:17.566Z,46.62
2023-04-06T20:45:20.375Z,47.20
2023-04-06T20:47:23.166Z,47.08
2023-04-06T20:49:25.739Z,47.13
2023-04-06T20:51:28.271Z,47.84
2023-04-06T20:53:32.360Z,48.29
2023-04-06T20:55:35.071Z,48.38
2023-04-06T20:57:37.661Z,48.62
2023-04-06T20:59:40.370Z,48.16
2023-04-06T21:01:43.827Z,48.50
2023-04-06T21:03:46.524Z,48.68
2023-04-06T21:05:52.728Z,48.82
2023-04-06T21:07:55.443Z,48.57
2023-04-06T21:09:59.340Z,49.12
2023-04-06T21:12:01.881Z,49.49
2023-04-06T21:14:04.483Z,49.22
2023-04-06T21:16:07.660Z,49.41
2023-04-06T21:18:10.487Z,49.91
2023-04-06T21:20:13.072Z,50.19
2023-04-06T21:22:15.790Z,50.42
2023-04-06T21:24:18.966Z,50.88
2023-04-06T21:26:23.146Z,51.44
2023-04-06T21:28:26.102Z,51.88
2023-04-06T21:30:28.722Z,52.81
2023-04-06T21:32:31.422Z,53.98
2023-04-06T21:34:34.163Z,55.06
2023-04-06T21:36:36.984Z,55.57
2023-04-06T21:38:39.867Z,56.92
2023-04-06T21:40:42.658Z,57.44
2023-04-06T21:42:46.588Z,57.82
2023-04-06T21:44:49.595Z,58.27
2023-04-06T21:46:52.264Z,58.73
2023-04-06T21:48:54.905Z,59.41
2023-04-06T21:50:57.471Z,59.39
2023-04-06T21:53:00.074Z,59.47
2023-04-06T21:55:04.250Z,59.77
2023-04-06T21:57:07.218Z,60.12
2023-04-06T21:59:11.733Z,59.62
2023-04-06T22:01:14.614Z,59.60
2023-04-06T22:03:18.228Z,59.78
2023-04-06T22:05:21.401Z,59.82
2023-04-06T22:07:23.995Z,60.15
2023-04-06T22:09:27.086Z,60.71
2023-04-06T22:11:30.144Z,61.35
2023-04-06T22:13:32.785Z,61.56
2023-04-06T22:15:37.135Z,59.79
2023-04-06T22:17:39.773Z,60.18
2023-04-06T22:19:42.346Z,60.74
2023-04-06T22:21:45.475Z,60.80
2023-04-06T22:23:48.289Z,61.20
2023-04-06T22:25:51.082Z,61.60
2023-04-06T22:27:53.614Z,62.04
2023-04-06T22:29:56.233Z,61.28
2023-04-06T22:32:00.233Z,61.48
2023-04-06T22:34:02.969Z,60.84
2023-04-06T22:36:06.172Z,61.16
2023-04-06T22:38:08.872Z,60.80
2023-04-06T22:40:12.513Z,60.53
2023-04-06T22:42:15.093Z,60.52
2023-04-06T22:44:17.855Z,60.94
2023-04-06T22:46:20.529Z,61.17
2023-04-06T22:48:24.478Z,61.44
2023-04-06T22:50:27.633Z,61.84
2023-04-06T22:52:30.351Z,62.02
2023-04-06T22:54:32.960Z,62.12
2023-04-06T22:56:36.120Z,62.56
2023-04-06T22:58:38.649Z,62.41
2023-04-06T23:00:41.191Z,62.08
2023-04-06T23:02:44.164Z,61.92
2023-04-06T23:04:48.141Z,62.66
2023-04-06T23:06:50.948Z,63.32
2023-04-06T23:08:53.542Z,62.95
2023-04-06T23:10:56.116Z,62.30
2023-04-06T23:12:58.701Z,61.44
2023-04-06T23:15:01.341Z,62.10
2023-04-06T23:17:04.010Z,61.94
2023-04-06T23:19:06.628Z,62.47
2023-04-06T23:21:10.571Z,61.52
2023-04-06T23:23:13.127Z,62.38
2023-04-06T23:25:15.676Z,62.14
2023-04-06T23:27:18.433Z,62.60
2023-04-06T23:29:21.247Z,62.96
2023-04-06T23:31:23.771Z,62.47
2023-04-06T23:33:26.972Z,63.62
2023-04-06T23:35:29.538Z,64.20
2023-04-06T23:37:33.417Z,64.20
2023-04-06T23:39:36.400Z,64.27
2023-04-06T23:41:38.983Z,62.92
2023-04-06T23:43:41.509Z,63.30
2023-04-06T23:45:44.131Z,63.23
2023-04-06T23:47:46.832Z,63.88
2023-04-06T23:49:49.398Z,63.92
2023-04-06T23:51:51.957Z,63.46
2023-04-06T23:53:55.902Z,62.95
2023-04-06T23:55:58.636Z,63.60
2023-04-06T23:58:01.856Z,63.73
